Baker City Municipal Airport
KBKE : now visible

Airfield :











YOU CAN JOIN US ON...

 
LOGIN :

Register | Disclaimer

   EN    FR    IT 

 









Legend :    VFR   Marginal VFR   IFR   Intensive IFR   Very Intensive IFR
Visi :
Ceiling :
>= 8 km
>= 3000ft
5 to 8 km
1000 to 3000 ft
1500m to 5 km
500 to 1000 ft
800 to 1500m
200 to 500 ft
< 800m
< 200 ft
Symbols :   Thunderstorms  Fog  Heavy snow  Heavy precipitations  Wind > 20 kt






- Airport Elevation : 3373 ft


KBKE - Baker City Municipal

CURRENT METAR :
  • 270153Z AUTO 11003KT 10SM CLR 02/01 A3006 RMK AO2 SLP196 T00170006

EXPIRED METARs :
  • 270053Z AUTO 26003KT 10SM CLR 04/02 A3005 RMK AO2 SLP188 T00390022
  • 262353Z AUTO 22003KT 10SM SCT019 05/04 A3003 RMK AO2 SLP180 60001 T00500039 10056 20044 53003

TAF KBKE
Valid from the 27 at 00:00 until the 28 at 00:00 UTC


262334Z 2700/2724 29005KT P6SM OVC015
FM270300 VRB03KT P6SM SCT015 OVC025
FM271800 12005KT P6SM VCSH OVC025



MET'MAP, your aeronautical weather chart ! - Copyright ORBIFLY December 2007 - Disclaimer

ORBIFLY MET'MAP TEAM :

Programming & Development : Alexandra Zaïnal
Concept & original design : Baudouin d'Aumeries
Assistance for programming : Marc-Olivier Méhu
Technical & hardware support : Manuel Goepfert

Contact : metmap@orbifly.com




SOURCES & CREDITS :

   NOAA       Earth
Advisory